sensor_id;sensor_type;location;lat;lon;timestamp;pressure;altitude;pressure_sealevel;temperature;humidity
26807;BME280;14380;49.910;6.792;2022-07-11T00:01:07;99539.75;;;18.33;99.40
26807;BME280;14380;49.910;6.792;2022-07-11T00:03:34;99547.16;;;18.05;100.00
26807;BME280;14380;49.910;6.792;2022-07-11T00:06:01;99545.59;;;18.27;99.58
26807;BME280;14380;49.910;6.792;2022-07-11T00:08:29;99545.28;;;18.19;100.00
26807;BME280;14380;49.910;6.792;2022-07-11T00:10:55;99546.31;;;18.29;98.07
26807;BME280;14380;49.910;6.792;2022-07-11T00:13:22;99537.66;;;18.25;98.03
26807;BME280;14380;49.910;6.792;2022-07-11T00:15:49;99545.81;;;18.24;99.15
26807;BME280;14380;49.910;6.792;2022-07-11T00:18:15;99532.78;;;18.19;100.00
26807;BME280;14380;49.910;6.792;2022-07-11T00:20:42;99528.53;;;18.17;100.00
26807;BME280;14380;49.910;6.792;2022-07-11T00:23:09;99525.72;;;18.18;100.00
26807;BME280;14380;49.910;6.792;2022-07-11T00:25:37;99522.16;;;18.06;100.00
26807;BME280;14380;49.910;6.792;2022-07-11T00:28:04;99514.78;;;18.21;99.01
26807;BME280;14380;49.910;6.792;2022-07-11T00:30:31;99520.16;;;18.21;99.26
26807;BME280;14380;49.910;6.792;2022-07-11T00:32:57;99522.22;;;18.18;100.00
26807;BME280;14380;49.910;6.792;2022-07-11T00:35:24;99518.34;;;18.22;99.68
26807;BME280;14380;49.910;6.792;2022-07-11T00:37:51;99522.06;;;18.19;100.00
26807;BME280;14380;49.910;6.792;2022-07-11T00:40:17;99512.56;;;18.15;99.51
26807;BME280;14380;49.910;6.792;2022-07-11T00:42:46;99515.38;;;18.13;100.00
26807;BME280;14380;49.910;6.792;2022-07-11T00:45:12;99509.75;;;18.05;100.00
26807;BME280;14380;49.910;6.792;2022-07-11T00:47:39;99512.41;;;18.05;100.00
26807;BME280;14380;49.910;6.792;2022-07-11T00:50:06;99510.50;;;18.07;100.00
26807;BME280;14380;49.910;6.792;2022-07-11T00:52:34;99506.41;;;18.15;100.00
26807;BME280;14380;49.910;6.792;2022-07-11T00:55:02;99511.66;;;17.79;100.00
26807;BME280;14380;49.910;6.792;2022-07-11T00:57:30;99507.34;;;17.89;100.00
26807;BME280;14380;49.910;6.792;2022-07-11T00:59:58;99503.56;;;17.92;100.00
26807;BME280;14380;49.910;6.792;2022-07-11T01:02:25;99502.53;;;18.19;100.00
26807;BME280;14380;49.910;6.792;2022-07-11T01:04:52;99502.19;;;17.99;100.00
26807;BME280;14380;49.910;6.792;2022-07-11T01:07:19;99499.31;;;17.89;100.00
26807;BME280;14380;49.910;6.792;2022-07-11T01:09:46;99506.97;;;17.94;100.00
26807;BME280;14380;49.910;6.792;2022-07-11T01:12:12;99495.81;;;17.64;100.00
26807;BME280;14380;49.910;6.792;2022-07-11T01:14:50;99497.50;;;17.90;100.00
26807;BME280;14380;49.910;6.792;2022-07-11T01:17:18;99496.28;;;17.94;100.00
26807;BME280;14380;49.910;6.792;2022-07-11T01:19:45;99490.22;;;17.92;100.00
26807;BME280;14380;49.910;6.792;2022-07-11T01:22:13;99490.44;;;17.89;100.00
26807;BME280;14380;49.910;6.792;2022-07-11T01:24:43;99490.69;;;17.61;100.00
26807;BME280;14380;49.910;6.792;2022-07-11T01:27:10;99488.06;;;17.73;100.00
26807;BME280;14380;49.910;6.792;2022-07-11T01:29:38;99486.03;;;17.76;100.00
26807;BME280;14380;49.910;6.792;2022-07-11T01:32:06;99484.88;;;17.92;100.00
26807;BME280;14380;49.910;6.792;2022-07-11T01:34:33;99487.44;;;17.93;100.00
26807;BME280;14380;49.910;6.792;2022-07-11T01:37:00;99487.06;;;17.87;100.00
26807;BME280;14380;49.910;6.792;2022-07-11T01:39:27;99483.69;;;17.96;100.00
26807;BME280;14380;49.910;6.792;2022-07-11T01:41:56;99482.28;;;18.03;100.00
26807;BME280;14380;49.910;6.792;2022-07-11T01:44:23;99477.06;;;18.02;100.00
26807;BME280;14380;49.910;6.792;2022-07-11T01:46:50;99477.16;;;18.00;100.00
26807;BME280;14380;49.910;6.792;2022-07-11T01:49:16;99479.94;;;17.98;100.00
26807;BME280;14380;49.910;6.792;2022-07-11T01:51:43;99477.28;;;17.98;100.00
26807;BME280;14380;49.910;6.792;2022-07-11T01:54:10;99475.66;;;17.96;100.00
26807;BME280;14380;49.910;6.792;2022-07-11T01:56:36;99480.09;;;17.84;100.00
26807;BME280;14380;49.910;6.792;2022-07-11T01:59:05;99478.97;;;17.75;100.00
26807;BME280;14380;49.910;6.792;2022-07-11T02:01:31;99477.59;;;17.94;100.00
26807;BME280;14380;49.910;6.792;2022-07-11T02:03:59;99483.28;;;17.89;100.00
26807;BME280;14380;49.910;6.792;2022-07-11T02:06:26;99480.91;;;17.97;100.00
26807;BME280;14380;49.910;6.792;2022-07-11T02:08:53;99473.97;;;17.95;100.00
26807;BME280;14380;49.910;6.792;2022-07-11T02:11:20;99474.53;;;17.87;100.00
26807;BME280;14380;49.910;6.792;2022-07-11T02:13:47;99476.53;;;17.96;100.00
26807;BME280;14380;49.910;6.792;2022-07-11T02:16:15;99475.56;;;17.97;100.00
26807;BME280;14380;49.910;6.792;2022-07-11T02:18:42;99475.00;;;18.05;100.00
26807;BME280;14380;49.910;6.792;2022-07-11T02:21:09;99472.38;;;17.92;100.00
26807;BME280;14380;49.910;6.792;2022-07-11T02:23:37;99465.56;;;17.88;100.00
26807;BME280;14380;49.910;6.792;2022-07-11T02:26:04;99468.38;;;17.98;100.00
26807;BME280;14380;49.910;6.792;2022-07-11T02:28:31;99469.88;;;17.78;100.00
26807;BME280;14380;49.910;6.792;2022-07-11T02:30:59;99468.19;;;17.39;100.00
26807;BME280;14380;49.910;6.792;2022-07-11T02:33:27;99462.78;;;17.65;100.00
26807;BME280;14380;49.910;6.792;2022-07-11T02:35:54;99463.78;;;17.76;100.00
26807;BME280;14380;49.910;6.792;2022-07-11T02:38:20;99464.00;;;17.73;100.00
26807;BME280;14380;49.910;6.792;2022-07-11T02:40:47;99462.72;;;17.54;100.00
26807;BME280;14380;49.910;6.792;2022-07-11T02:43:14;99464.69;;;17.39;100.00
26807;BME280;14380;49.910;6.792;2022-07-11T02:45:41;99469.75;;;17.55;100.00
26807;BME280;14380;49.910;6.792;2022-07-11T02:48:07;99470.06;;;17.63;100.00
26807;BME280;14380;49.910;6.792;2022-07-11T02:50:36;99475.31;;;17.52;100.00
26807;BME280;14380;49.910;6.792;2022-07-11T02:53:02;99470.66;;;17.67;100.00
26807;BME280;14380;49.910;6.792;2022-07-11T02:55:29;99466.75;;;17.60;100.00
26807;BME280;14380;49.910;6.792;2022-07-11T02:57:56;99466.06;;;17.69;100.00
26807;BME280;14380;49.910;6.792;2022-07-11T03:00:22;99475.09;;;17.55;100.00
26807;BME280;14380;49.910;6.792;2022-07-11T03:02:49;99473.53;;;17.39;100.00
26807;BME280;14380;49.910;6.792;2022-07-11T03:05:16;99473.78;;;17.23;100.00
26807;BME280;14380;49.910;6.792;2022-07-11T03:07:44;99475.59;;;17.36;100.00
26807;BME280;14380;49.910;6.792;2022-07-11T03:10:11;99472.69;;;17.26;100.00
26807;BME280;14380;49.910;6.792;2022-07-11T03:12:37;99473.44;;;17.28;100.00
26807;BME280;14380;49.910;6.792;2022-07-11T03:15:05;99475.50;;;17.24;100.00
26807;BME280;14380;49.910;6.792;2022-07-11T03:17:32;99471.69;;;17.16;100.00
26807;BME280;14380;49.910;6.792;2022-07-11T03:19:59;99476.59;;;17.22;100.00
26807;BME280;14380;49.910;6.792;2022-07-11T03:22:26;99467.41;;;17.13;100.00
26807;BME280;14380;49.910;6.792;2022-07-11T03:24:54;99471.59;;;17.04;100.00
26807;BME280;14380;49.910;6.792;2022-07-11T03:27:21;99470.47;;;16.94;100.00
26807;BME280;14380;49.910;6.792;2022-07-11T03:29:48;99469.00;;;17.03;100.00
26807;BME280;14380;49.910;6.792;2022-07-11T03:32:15;99471.13;;;16.85;100.00
26807;BME280;14380;49.910;6.792;2022-07-11T03:34:45;99468.56;;;16.44;100.00
26807;BME280;14380;49.910;6.792;2022-07-11T03:37:32;99467.94;;;16.54;100.00
26807;BME280;14380;49.910;6.792;2022-07-11T03:40:00;99458.56;;;16.74;100.00
26807;BME280;14380;49.910;6.792;2022-07-11T03:42:27;99465.38;;;16.65;100.00
26807;BME280;14380;49.910;6.792;2022-07-11T03:44:54;99465.13;;;16.29;100.00
26807;BME280;14380;49.910;6.792;2022-07-11T03:47:21;99472.09;;;16.45;100.00
26807;BME280;14380;49.910;6.792;2022-07-11T03:49:47;99477.63;;;16.55;100.00
26807;BME280;14380;49.910;6.792;2022-07-11T03:52:14;99476.88;;;16.53;100.00
26807;BME280;14380;49.910;6.792;2022-07-11T03:54:41;99479.75;;;16.49;100.00
26807;BME280;14380;49.910;6.792;2022-07-11T03:57:09;99474.63;;;16.46;100.00
26807;BME280;14380;49.910;6.792;2022-07-11T03:59:36;99475.91;;;16.41;100.00
26807;BME280;14380;49.910;6.792;2022-07-11T04:02:03;99482.00;;;16.43;100.00
26807;BME280;14380;49.910;6.792;2022-07-11T04:04:30;99482.22;;;16.40;100.00
26807;BME280;14380;49.910;6.792;2022-07-11T04:06:56;99478.47;;;16.42;100.00
26807;BME280;14380;49.910;6.792;2022-07-11T04:09:23;99479.69;;;16.51;100.00
26807;BME280;14380;49.910;6.792;2022-07-11T04:11:51;99477.94;;;16.37;100.00
26807;BME280;14380;49.910;6.792;2022-07-11T04:14:19;99472.38;;;16.27;100.00
26807;BME280;14380;49.910;6.792;2022-07-11T04:16:46;99479.00;;;16.47;100.00
26807;BME280;14380;49.910;6.792;2022-07-11T04:19:12;99477.31;;;16.46;100.00
26807;BME280;14380;49.910;6.792;2022-07-11T04:21:39;99471.03;;;16.60;100.00
26807;BME280;14380;49.910;6.792;2022-07-11T04:24:06;99474.66;;;16.59;100.00
26807;BME280;14380;49.910;6.792;2022-07-11T04:26:32;99478.09;;;16.74;100.00
26807;BME280;14380;49.910;6.792;2022-07-11T04:28:59;99475.94;;;16.79;100.00
26807;BME280;14380;49.910;6.792;2022-07-11T04:31:27;99477.53;;;16.82;100.00
26807;BME280;14380;49.910;6.792;2022-07-11T04:33:54;99475.41;;;16.87;100.00
26807;BME280;14380;49.910;6.792;2022-07-11T04:36:21;99475.94;;;16.92;100.00
26807;BME280;14380;49.910;6.792;2022-07-11T04:38:47;99483.84;;;16.81;100.00
26807;BME280;14380;49.910;6.792;2022-07-11T04:41:14;99488.09;;;16.84;100.00
26807;BME280;14380;49.910;6.792;2022-07-11T04:43:41;99489.38;;;17.04;100.00
26807;BME280;14380;49.910;6.792;2022-07-11T04:46:09;99487.25;;;17.22;100.00
26807;BME280;14380;49.910;6.792;2022-07-11T04:48:37;99488.22;;;17.21;100.00
26807;BME280;14380;49.910;6.792;2022-07-11T04:51:04;99489.16;;;17.33;100.00
26807;BME280;14380;49.910;6.792;2022-07-11T04:53:32;99490.06;;;17.45;100.00
26807;BME280;14380;49.910;6.792;2022-07-11T04:55:58;99493.44;;;17.22;100.00
26807;BME280;14380;49.910;6.792;2022-07-11T04:58:25;99490.88;;;17.08;100.00
26807;BME280;14380;49.910;6.792;2022-07-11T05:00:52;99491.84;;;17.20;100.00
26807;BME280;14380;49.910;6.792;2022-07-11T05:03:18;99501.09;;;17.27;100.00
26807;BME280;14380;49.910;6.792;2022-07-11T05:05:47;99498.47;;;17.14;100.00
26807;BME280;14380;49.910;6.792;2022-07-11T05:08:14;99493.25;;;17.13;100.00
26807;BME280;14380;49.910;6.792;2022-07-11T05:10:40;99496.53;;;17.16;100.00
26807;BME280;14380;49.910;6.792;2022-07-11T05:13:07;99502.50;;;17.33;100.00
26807;BME280;14380;49.910;6.792;2022-07-11T05:15:34;99498.97;;;17.32;100.00
26807;BME280;14380;49.910;6.792;2022-07-11T05:18:01;99503.31;;;17.46;100.00
26807;BME280;14380;49.910;6.792;2022-07-11T05:20:28;99503.34;;;17.33;100.00
26807;BME280;14380;49.910;6.792;2022-07-11T05:22:56;99500.88;;;17.43;100.00
26807;BME280;14380;49.910;6.792;2022-07-11T05:25:23;99511.34;;;17.71;100.00
26807;BME280;14380;49.910;6.792;2022-07-11T05:27:50;99504.53;;;18.04;100.00
26807;BME280;14380;49.910;6.792;2022-07-11T05:30:17;99505.66;;;18.12;100.00
26807;BME280;14380;49.910;6.792;2022-07-11T05:32:43;99505.06;;;18.20;100.00
26807;BME280;14380;49.910;6.792;2022-07-11T05:35:10;99507.09;;;18.41;100.00
26807;BME280;14380;49.910;6.792;2022-07-11T05:37:37;99505.41;;;18.40;100.00
26807;BME280;14380;49.910;6.792;2022-07-11T05:40:06;99516.84;;;18.18;100.00
26807;BME280;14380;49.910;6.792;2022-07-11T05:42:34;99514.56;;;18.24;100.00
26807;BME280;14380;49.910;6.792;2022-07-11T05:45:01;99513.31;;;18.53;100.00
26807;BME280;14380;49.910;6.792;2022-07-11T05:47:27;99514.38;;;18.75;100.00
26807;BME280;14380;49.910;6.792;2022-07-11T05:49:54;99510.75;;;18.40;100.00
26807;BME280;14380;49.910;6.792;2022-07-11T05:52:21;99510.22;;;18.70;100.00
26807;BME280;14380;49.910;6.792;2022-07-11T05:54:48;99514.19;;;19.00;100.00
26807;BME280;14380;49.910;6.792;2022-07-11T05:57:16;99517.22;;;19.07;100.00
26807;BME280;14380;49.910;6.792;2022-07-11T05:59:42;99517.09;;;19.09;100.00
26807;BME280;14380;49.910;6.792;2022-07-11T06:02:11;99506.47;;;18.84;100.00
26807;BME280;14380;49.910;6.792;2022-07-11T06:04:38;99502.88;;;18.97;100.00
26807;BME280;14380;49.910;6.792;2022-07-11T06:07:05;99509.25;;;18.83;100.00
26807;BME280;14380;49.910;6.792;2022-07-11T06:09:32;99509.19;;;19.30;100.00
26807;BME280;14380;49.910;6.792;2022-07-11T06:11:57;99507.84;;;19.58;100.00
26807;BME280;14380;49.910;6.792;2022-07-11T06:14:25;99509.13;;;19.75;100.00
26807;BME280;14380;49.910;6.792;2022-07-11T06:16:52;99505.72;;;19.73;96.73
26807;BME280;14380;49.910;6.792;2022-07-11T06:19:19;99501.19;;;19.85;98.05
26807;BME280;14380;49.910;6.792;2022-07-11T06:21:46;99507.66;;;19.83;96.46
26807;BME280;14380;49.910;6.792;2022-07-11T06:24:12;99502.97;;;20.08;97.88
26807;BME280;14380;49.910;6.792;2022-07-11T06:26:39;99512.53;;;20.21;94.44
26807;BME280;14380;49.910;6.792;2022-07-11T06:29:06;99510.25;;;20.17;94.21
26807;BME280;14380;49.910;6.792;2022-07-11T06:31:34;99514.03;;;20.14;92.81
26807;BME280;14380;49.910;6.792;2022-07-11T06:34:01;99507.09;;;20.12;92.34
26807;BME280;14380;49.910;6.792;2022-07-11T06:36:27;99502.44;;;20.25;94.56
26807;BME280;14380;49.910;6.792;2022-07-11T06:38:54;99515.38;;;20.20;93.89
26807;BME280;14380;49.910;6.792;2022-07-11T06:41:21;99509.84;;;20.21;94.46
26807;BME280;14380;49.910;6.792;2022-07-11T06:43:48;99508.28;;;20.19;97.31
26807;BME280;14380;49.910;6.792;2022-07-11T06:46:14;99506.69;;;20.91;93.06
26807;BME280;14380;49.910;6.792;2022-07-11T06:48:43;99498.41;;;21.04;93.38
26807;BME280;14380;49.910;6.792;2022-07-11T06:51:10;99493.97;;;20.93;87.45
26807;BME280;14380;49.910;6.792;2022-07-11T06:53:37;99491.84;;;21.18;86.00
26807;BME280;14380;49.910;6.792;2022-07-11T06:56:04;99489.50;;;21.86;83.91
26807;BME280;14380;49.910;6.792;2022-07-11T06:58:31;99492.63;;;22.01;83.93
26807;BME280;14380;49.910;6.792;2022-07-11T07:00:59;99488.06;;;21.81;82.92
26807;BME280;14380;49.910;6.792;2022-07-11T07:03:26;99492.22;;;22.05;83.04
26807;BME280;14380;49.910;6.792;2022-07-11T07:05:56;99499.69;;;21.82;83.48
26807;BME280;14380;49.910;6.792;2022-07-11T07:08:23;99491.44;;;21.64;81.93
26807;BME280;14380;49.910;6.792;2022-07-11T07:10:51;99494.97;;;21.64;83.47
26807;BME280;14380;49.910;6.792;2022-07-11T07:13:18;99495.31;;;21.91;83.50
26807;BME280;14380;49.910;6.792;2022-07-11T07:15:45;99494.59;;;22.08;83.17
26807;BME280;14380;49.910;6.792;2022-07-11T07:18:12;99494.19;;;22.23;84.53
26807;BME280;14380;49.910;6.792;2022-07-11T07:20:39;99497.16;;;22.30;82.62
26807;BME280;14380;49.910;6.792;2022-07-11T07:23:07;99502.97;;;22.15;83.91
26807;BME280;14380;49.910;6.792;2022-07-11T07:25:34;99501.56;;;22.01;83.55
26807;BME280;14380;49.910;6.792;2022-07-11T07:28:00;99500.09;;;21.87;85.26
26807;BME280;14380;49.910;6.792;2022-07-11T07:30:27;99499.28;;;22.55;86.17
26807;BME280;14380;49.910;6.792;2022-07-11T07:32:54;99498.69;;;22.71;84.76
26807;BME280;14380;49.910;6.792;2022-07-11T07:35:21;99510.75;;;22.18;83.77
26807;BME280;14380;49.910;6.792;2022-07-11T07:37:47;99507.75;;;22.02;82.49
26807;BME280;14380;49.910;6.792;2022-07-11T07:40:15;99520.78;;;21.96;82.91
26807;BME280;14380;49.910;6.792;2022-07-11T07:42:42;99516.00;;;22.30;87.17
26807;BME280;14380;49.910;6.792;2022-07-11T07:45:09;99504.22;;;21.91;83.70
26807;BME280;14380;49.910;6.792;2022-07-11T07:47:36;99511.03;;;22.05;84.38
26807;BME280;14380;49.910;6.792;2022-07-11T07:50:04;99523.94;;;21.61;83.33
26807;BME280;14380;49.910;6.792;2022-07-11T07:52:31;99519.38;;;22.12;87.25
26807;BME280;14380;49.910;6.792;2022-07-11T07:54:58;99515.16;;;22.58;79.52
26807;BME280;14380;49.910;6.792;2022-07-11T07:57:26;99514.16;;;22.60;79.30
26807;BME280;14380;49.910;6.792;2022-07-11T07:59:53;99514.53;;;22.84;79.24
26807;BME280;14380;49.910;6.792;2022-07-11T08:02:40;99514.56;;;22.55;79.97
26807;BME280;14380;49.910;6.792;2022-07-11T08:05:07;99523.03;;;21.81;81.61
26807;BME280;14380;49.910;6.792;2022-07-11T08:07:34;99520.94;;;21.85;83.55
26807;BME280;14380;49.910;6.792;2022-07-11T08:10:01;99521.75;;;21.86;83.17
26807;BME280;14380;49.910;6.792;2022-07-11T08:12:29;99532.78;;;21.92;82.62
26807;BME280;14380;49.910;6.792;2022-07-11T08:14:55;99524.91;;;22.40;84.60
26807;BME280;14380;49.910;6.792;2022-07-11T08:17:22;99530.03;;;22.63;81.82
26807;BME280;14380;49.910;6.792;2022-07-11T08:19:49;99529.19;;;22.52;81.20
26807;BME280;14380;49.910;6.792;2022-07-11T08:22:16;99532.44;;;22.26;82.07
26807;BME280;14380;49.910;6.792;2022-07-11T08:24:42;99527.31;;;22.53;83.27
26807;BME280;14380;49.910;6.792;2022-07-11T08:27:10;99533.22;;;21.97;81.62
26807;BME280;14380;49.910;6.792;2022-07-11T08:29:38;99528.88;;;22.65;80.78
26807;BME280;14380;49.910;6.792;2022-07-11T08:32:05;99527.03;;;22.56;80.23
26807;BME280;14380;49.910;6.792;2022-07-11T08:34:32;99527.59;;;22.40;81.27
26807;BME280;14380;49.910;6.792;2022-07-11T08:36:58;99530.84;;;22.04;81.87
26807;BME280;14380;49.910;6.792;2022-07-11T08:39:25;99524.28;;;22.85;82.23
26807;BME280;14380;49.910;6.792;2022-07-11T08:41:52;99524.38;;;23.13;79.18
26807;BME280;14380;49.910;6.792;2022-07-11T08:44:20;99531.69;;;22.73;79.42
26807;BME280;14380;49.910;6.792;2022-07-11T08:46:49;99526.81;;;22.97;77.74
26807;BME280;14380;49.910;6.792;2022-07-11T08:49:16;99513.38;;;24.09;75.26
26807;BME280;14380;49.910;6.792;2022-07-11T08:51:44;99516.94;;;23.35;75.92
26807;BME280;14380;49.910;6.792;2022-07-11T08:54:11;99523.47;;;23.60;76.28
26807;BME280;14380;49.910;6.792;2022-07-11T08:56:38;99530.97;;;21.93;83.13
26807;BME280;14380;49.910;6.792;2022-07-11T08:59:05;99520.66;;;22.77;80.14
26807;BME280;14380;49.910;6.792;2022-07-11T09:01:34;99527.97;;;22.94;78.75
26807;BME280;14380;49.910;6.792;2022-07-11T09:04:07;99525.66;;;23.09;78.89
26807;BME280;14380;49.910;6.792;2022-07-11T09:06:34;99528.97;;;22.93;77.44
26807;BME280;14380;49.910;6.792;2022-07-11T09:09:01;99529.94;;;23.02;77.77
26807;BME280;14380;49.910;6.792;2022-07-11T09:11:29;99519.44;;;23.46;76.15
26807;BME280;14380;49.910;6.792;2022-07-11T09:14:20;99520.31;;;23.93;75.94
26807;BME280;14380;49.910;6.792;2022-07-11T09:16:51;99521.81;;;23.77;76.07
26807;BME280;14380;49.910;6.792;2022-07-11T09:19:24;99517.94;;;23.62;77.11
26807;BME280;14380;49.910;6.792;2022-07-11T09:22:02;99503.97;;;24.13;74.98
26807;BME280;14380;49.910;6.792;2022-07-11T09:24:58;99509.47;;;24.03;75.43
26807;BME280;14380;49.910;6.792;2022-07-11T09:27:44;99505.03;;;24.38;74.32
26807;BME280;14380;49.910;6.792;2022-07-11T09:30:19;99512.59;;;23.52;75.46
26807;BME280;14380;49.910;6.792;2022-07-11T09:32:58;99512.19;;;22.99;76.14
26807;BME280;14380;49.910;6.792;2022-07-11T09:35:28;99509.34;;;23.95;75.10
26807;BME280;14380;49.910;6.792;2022-07-11T09:37:56;99493.75;;;24.79;74.87
26807;BME280;14380;49.910;6.792;2022-07-11T09:40:23;99487.41;;;25.66;70.59
26807;BME280;14380;49.910;6.792;2022-07-11T09:42:52;99490.44;;;25.63;69.55
26807;BME280;14380;49.910;6.792;2022-07-11T09:45:20;99487.75;;;24.67;71.09
26807;BME280;14380;49.910;6.792;2022-07-11T09:47:49;99489.22;;;24.88;71.11
26807;BME280;14380;49.910;6.792;2022-07-11T09:50:20;99496.72;;;23.49;73.90
26807;BME280;14380;49.910;6.792;2022-07-11T09:53:03;99488.63;;;24.49;71.55
26807;BME280;14380;49.910;6.792;2022-07-11T09:55:30;99482.06;;;25.05;71.85
26807;BME280;14380;49.910;6.792;2022-07-11T09:57:57;99478.75;;;25.54;70.03
26807;BME280;14380;49.910;6.792;2022-07-11T10:00:24;99486.78;;;25.80;67.58
26807;BME280;14380;49.910;6.792;2022-07-11T10:02:51;99478.75;;;25.62;68.68
26807;BME280;14380;49.910;6.792;2022-07-11T10:05:19;99487.38;;;25.58;69.56
26807;BME280;14380;49.910;6.792;2022-07-11T10:07:46;99477.75;;;25.20;70.50
26807;BME280;14380;49.910;6.792;2022-07-11T10:10:14;99486.00;;;25.19;69.79
26807;BME280;14380;49.910;6.792;2022-07-11T10:12:42;99492.00;;;24.96;70.71
26807;BME280;14380;49.910;6.792;2022-07-11T10:15:10;99495.47;;;24.62;70.68
26807;BME280;14380;49.910;6.792;2022-07-11T10:17:44;99503.88;;;24.59;72.51
26807;BME280;14380;49.910;6.792;2022-07-11T10:20:19;99496.91;;;24.56;71.54
26807;BME280;14380;49.910;6.792;2022-07-11T10:22:52;99505.94;;;24.20;73.32
26807;BME280;14380;49.910;6.792;2022-07-11T10:25:25;99498.22;;;24.26;73.30
26807;BME280;14380;49.910;6.792;2022-07-11T10:28:03;99503.81;;;24.95;71.59
26807;BME280;14380;49.910;6.792;2022-07-11T10:30:46;99494.75;;;25.04;72.03
26807;BME280;14380;49.910;6.792;2022-07-11T10:33:14;99494.34;;;25.77;68.59
26807;BME280;14380;49.910;6.792;2022-07-11T10:35:42;99501.06;;;26.24;69.19
26807;BME280;14380;49.910;6.792;2022-07-11T10:38:09;99499.59;;;25.01;70.57
26807;BME280;14380;49.910;6.792;2022-07-11T10:40:48;99499.09;;;24.97;71.44
26807;BME280;14380;49.910;6.792;2022-07-11T10:43:32;99498.66;;;24.84;72.00
26807;BME280;14380;49.910;6.792;2022-07-11T10:46:01;99502.16;;;24.76;71.88
26807;BME280;14380;49.910;6.792;2022-07-11T10:48:31;99492.50;;;25.34;70.82
26807;BME280;14380;49.910;6.792;2022-07-11T10:51:23;99495.47;;;25.15;69.54
26807;BME280;14380;49.910;6.792;2022-07-11T10:53:51;99494.56;;;25.92;68.54
26807;BME280;14380;49.910;6.792;2022-07-11T10:56:44;99493.09;;;25.46;67.35
26807;BME280;14380;49.910;6.792;2022-07-11T10:59:14;99488.69;;;25.45;70.59
26807;BME280;14380;49.910;6.792;2022-07-11T11:02:02;99480.75;;;25.44;69.40
26807;BME280;14380;49.910;6.792;2022-07-11T11:04:46;99505.84;;;23.66;74.45
26807;BME280;14380;49.910;6.792;2022-07-11T11:07:36;99497.31;;;23.89;74.34
26807;BME280;14380;49.910;6.792;2022-07-11T11:13:15;99483.38;;;24.92;73.07
26807;BME280;14380;49.910;6.792;2022-07-11T11:15:46;99491.03;;;24.34;73.45
26807;BME280;14380;49.910;6.792;2022-07-11T11:18:33;99493.84;;;25.30;72.38
26807;BME280;14380;49.910;6.792;2022-07-11T11:21:19;99484.19;;;25.71;69.84
26807;BME280;14380;49.910;6.792;2022-07-11T11:24:04;99481.72;;;25.43;72.13
26807;BME280;14380;49.910;6.792;2022-07-11T11:26:51;99488.88;;;24.20;72.75
26807;BME280;14380;49.910;6.792;2022-07-11T11:29:23;99487.16;;;24.37;73.84
26807;BME280;14380;49.910;6.792;2022-07-11T11:31:54;99480.25;;;24.61;71.95
26807;BME280;14380;49.910;6.792;2022-07-11T11:34:22;99476.31;;;24.55;73.12
26807;BME280;14380;49.910;6.792;2022-07-11T11:36:54;99482.47;;;24.21;74.28
26807;BME280;14380;49.910;6.792;2022-07-11T11:39:22;99477.06;;;24.65;74.23
26807;BME280;14380;49.910;6.792;2022-07-11T11:41:50;99482.63;;;24.38;72.48
26807;BME280;14380;49.910;6.792;2022-07-11T11:44:16;99480.63;;;24.84;73.04
26807;BME280;14380;49.910;6.792;2022-07-11T11:46:44;99489.44;;;24.68;74.00
26807;BME280;14380;49.910;6.792;2022-07-11T11:49:11;99481.34;;;24.94;73.51
26807;BME280;14380;49.910;6.792;2022-07-11T11:51:40;99479.94;;;24.82;73.28
26807;BME280;14380;49.910;6.792;2022-07-11T11:54:09;99485.66;;;24.79;71.52
26807;BME280;14380;49.910;6.792;2022-07-11T11:56:36;99483.56;;;24.73;72.94
26807;BME280;14380;49.910;6.792;2022-07-11T11:59:06;99473.28;;;24.76;73.58
26807;BME280;14380;49.910;6.792;2022-07-11T12:01:35;99479.41;;;24.60;72.96
26807;BME280;14380;49.910;6.792;2022-07-11T12:04:04;99483.16;;;24.41;72.97
26807;BME280;14380;49.910;6.792;2022-07-11T12:06:34;99481.22;;;25.04;73.77
26807;BME280;14380;49.910;6.792;2022-07-11T12:09:03;99476.88;;;25.12;72.34
26807;BME280;14380;49.910;6.792;2022-07-11T12:11:30;99476.22;;;25.18;69.54
26807;BME280;14380;49.910;6.792;2022-07-11T12:13:58;99485.06;;;24.93;72.84
26807;BME280;14380;49.910;6.792;2022-07-11T12:16:26;99480.97;;;24.63;72.78
26807;BME280;14380;49.910;6.792;2022-07-11T12:19:12;99481.88;;;24.98;71.89
26807;BME280;14380;49.910;6.792;2022-07-11T12:21:41;99489.06;;;25.16;71.74
26807;BME280;14380;49.910;6.792;2022-07-11T12:24:10;99487.56;;;25.21;69.74
26807;BME280;14380;49.910;6.792;2022-07-11T12:26:38;99480.97;;;25.16;72.59
26807;BME280;14380;49.910;6.792;2022-07-11T12:29:07;99477.06;;;25.61;71.28
26807;BME280;14380;49.910;6.792;2022-07-11T12:31:46;99475.84;;;25.47;68.80
26807;BME280;14380;49.910;6.792;2022-07-11T12:34:16;99475.19;;;25.53;70.16
26807;BME280;14380;49.910;6.792;2022-07-11T12:36:43;99476.22;;;25.18;70.01
26807;BME280;14380;49.910;6.792;2022-07-11T12:39:21;99485.94;;;25.02;70.34
26807;BME280;14380;49.910;6.792;2022-07-11T12:41:49;99480.31;;;24.95;70.38
26807;BME280;14380;49.910;6.792;2022-07-11T12:44:21;99477.84;;;25.02;72.05
26807;BME280;14380;49.910;6.792;2022-07-11T12:47:05;99471.91;;;24.99;69.10
26807;BME280;14380;49.910;6.792;2022-07-11T12:49:33;99484.72;;;24.52;71.32
26807;BME280;14380;49.910;6.792;2022-07-11T12:52:00;99469.03;;;25.00;69.95
26807;BME280;14380;49.910;6.792;2022-07-11T12:54:29;99473.00;;;25.14;70.36
26807;BME280;14380;49.910;6.792;2022-07-11T12:56:57;99470.13;;;24.81;71.58
26807;BME280;14380;49.910;6.792;2022-07-11T12:59:26;99466.06;;;24.59;71.46
26807;BME280;14380;49.910;6.792;2022-07-11T13:01:54;99461.44;;;24.51;71.83
26807;BME280;14380;49.910;6.792;2022-07-11T13:04:29;99470.19;;;24.45;72.08
26807;BME280;14380;49.910;6.792;2022-07-11T13:06:57;99467.72;;;25.04;70.55